BBC Polonia — V2EZ6 — position and weather

sailwx.info

Track history (hours):
 
Tides and Currents Weather Stations Pressure Air Temp Water Temp Dewpoint Dewpoint Depression Visibility Wind Speed Wind Dir Waves Ship Positions

BBC Polonia

Last reported at 2014-Sep-05 02:33 UTC. Time now 2014-Oct-01 22:28 UTC.
Position N 29°33' W 094°55'.
Warning: this ship's position is 26 days out of date.

Length 123 m; draft 6.1 m.

Type: Cargo ship. MMSI: 305614000.

Date/timePositionNaut miles runAvg speedWind from/ knotsBaromVisibWave heightAir tempDewpointWater temp
2014-Sep-05 02:33N 29°33' W 094°55'1211.6
2014-Sep-05 01:33N 29°43' W 095°01'7 7.3
2014-Sep-05 00:33N 29°44' W 095°09'6 0.1
2014-Sep-03 06:23N 29°44' W 095°16'4 4.9
2014-Sep-03 05:33N 29°45' W 095°11'6 6.0
2014-Sep-03 04:33N 29°46' W 095°05'8 8.2
2014-Sep-03 03:34N 29°40' W 094°58'1212.0
2014-Sep-03 02:34N 29°29' W 094°52'  
2014-Aug-27 07:33N 29°31' W 094°53'1212.2
2014-Aug-27 06:33N 29°42' W 094°60'6 6.1
2014-Aug-27 05:31N 29°45' W 095°06'1 1.3
2014-Aug-27 04:33N 29°44' W 095°07'0 0.0
2014-Aug-27 03:33N 29°44' W 095°07'0 0.0
2014-Aug-27 02:33N 29°44' W 095°07'0 0.0
2014-Aug-27 01:33N 29°44' W 095°07'0 0.0
2014-Aug-27 00:33N 29°44' W 095°07'0 0.0
2014-Aug-26 23:33N 29°44' W 095°07'0 0.0
2014-Aug-26 22:33N 29°44' W 095°07'0 0.0
2014-Aug-26 21:30N 29°44' W 095°07'0 0.0
2014-Aug-26 20:33N 29°44' W 095°07'0 0.0
2014-Aug-26 19:33N 29°44' W 095°07'0 0.0
2014-Aug-26 18:33N 29°44' W 095°07'0 0.0
2014-Aug-26 17:27N 29°44' W 095°07'0 0.0
2014-Aug-26 16:33N 29°44' W 095°07'0 0.0
2014-Aug-26 15:27N 29°44' W 095°07'0 0.0
2014-Aug-26 14:33N 29°44' W 095°07'0 0.0
2014-Aug-26 13:30N 29°44' W 095°07'0 0.0
2014-Aug-26 12:33N 29°44' W 095°07'0 0.0
2014-Aug-26 11:33N 29°44' W 095°07'0 0.0
2014-Aug-26 10:33N 29°44' W 095°07'0 0.0
2014-Aug-26 09:33N 29°44' W 095°07'0 0.0
2014-Aug-26 08:33N 29°44' W 095°07'0 0.0
2014-Aug-26 07:33N 29°44' W 095°07'0 0.0
2014-Aug-26 06:33N 29°44' W 095°07'0 0.0
2014-Aug-26 05:30N 29°44' W 095°07'0 0.4
2014-Aug-26 04:33N 29°44' W 095°07'5 5.5
2014-Aug-26 03:33N 29°44' W 095°14'  
Track history (hours):
 
Tides and Currents Weather Stations Pressure Air Temp Water Temp Dewpoint Dewpoint Depression Visibility Wind Speed Wind Dir Waves Ship Positions

BBC Polonia

Last reported at 2014-Sep-05 02:33 UTC. Time now 2014-Oct-01 22:28 UTC.
Position N 29°33' W 094°55'.
Warning: this ship's position is 26 days out of date.

Length 123 m; draft 6.1 m.

Type: Cargo ship. MMSI: 305614000.

Date/timePositionNaut miles runAvg speedWind from/ knotsBaromVisibWave heightAir tempDewpointWater temp
2014-Sep-05 02:33N 29°33' W 094°55'1211.6
2014-Sep-05 01:33N 29°43' W 095°01'7 7.3
2014-Sep-05 00:33N 29°44' W 095°09'6 0.1
2014-Sep-03 06:23N 29°44' W 095°16'4 4.9
2014-Sep-03 05:33N 29°45' W 095°11'6 6.0
2014-Sep-03 04:33N 29°46' W 095°05'8 8.2
2014-Sep-03 03:34N 29°40' W 094°58'1212.0
2014-Sep-03 02:34N 29°29' W 094°52'  
2014-Aug-27 07:33N 29°31' W 094°53'1212.2
2014-Aug-27 06:33N 29°42' W 094°60'6 6.1
2014-Aug-27 05:31N 29°45' W 095°06'1 1.3
2014-Aug-27 04:33N 29°44' W 095°07'0 0.0
2014-Aug-27 03:33N 29°44' W 095°07'0 0.0
2014-Aug-27 02:33N 29°44' W 095°07'0 0.0
2014-Aug-27 01:33N 29°44' W 095°07'0 0.0
2014-Aug-27 00:33N 29°44' W 095°07'0 0.0
2014-Aug-26 23:33N 29°44' W 095°07'0 0.0
2014-Aug-26 22:33N 29°44' W 095°07'0 0.0
2014-Aug-26 21:30N 29°44' W 095°07'0 0.0
2014-Aug-26 20:33N 29°44' W 095°07'0 0.0
2014-Aug-26 19:33N 29°44' W 095°07'0 0.0
2014-Aug-26 18:33N 29°44' W 095°07'0 0.0
2014-Aug-26 17:27N 29°44' W 095°07'0 0.0
2014-Aug-26 16:33N 29°44' W 095°07'0 0.0
2014-Aug-26 15:27N 29°44' W 095°07'0 0.0
2014-Aug-26 14:33N 29°44' W 095°07'0 0.0
2014-Aug-26 13:30N 29°44' W 095°07'0 0.0
2014-Aug-26 12:33N 29°44' W 095°07'0 0.0
2014-Aug-26 11:33N 29°44' W 095°07'0 0.0
2014-Aug-26 10:33N 29°44' W 095°07'0 0.0
2014-Aug-26 09:33N 29°44' W 095°07'0 0.0
2014-Aug-26 08:33N 29°44' W 095°07'0 0.0
2014-Aug-26 07:33N 29°44' W 095°07'0 0.0
2014-Aug-26 06:33N 29°44' W 095°07'0 0.0
2014-Aug-26 05:30N 29°44' W 095°07'0 0.4
2014-Aug-26 04:33N 29°44' W 095°07'5 5.5
2014-Aug-26 03:33N 29°44' W 095°14'  

Dump ship's entire track history